Time;durP1;ratioP1;P1;durP2;ratioP2;P2;SDS_P1;SDS_P2;PMS_P1;PMS_P2;Temp;Humidity;BMP_temperature;BMP_pressure;BME280_temperature;BME280_humidity;BME280_pressure;Samples;Min_cycle;Max_cycle;Signal;HPM_P1;HPM_P2
2024/02/03 00:00:10;;;;;;;0.00;0.00;;;;;;;10.25;100.00;101730.97;6128932;23;19997;-83
2024/02/03 00:02:36;;;;;;;0.00;0.00;;;;;;;10.35;100.00;101735.06;6130175;23;20005;-80
2024/02/03 00:08:59;;;;;;;;;;;;;;;;;;;;;
2024/02/03 00:18:03;;;;;;;0.00;0.00;;;;;;;10.13;100.00;101694.53;5866644;24;20106;-74
2024/02/03 00:20:52;;;;;;;;;;;;;;;;;;;;;
2024/02/03 00:31:00;;;;;;;0.00;0.00;;;;;;;10.40;100.00;101737.94;6008395;23;20008;-74
2024/02/03 00:34:24;;;;;;;;;;;;;;;;;;;;;
2024/02/03 00:37:51;;;;;;;0.00;0.00;;;;;;;10.09;100.00;101677.78;5925945;24;20076;-76
2024/02/03 00:40:36;;;;;;;0.00;0.00;;;;;;;10.19;100.00;101687.31;5903632;24;20024;-75
2024/02/03 00:46:37;;;;;;;0.00;0.00;;;;;;;10.14;100.00;101668.88;5923991;24;20042;-74
2024/02/03 00:49:03;;;;;;;0.00;0.00;;;;;;;10.48;100.00;101722.03;5958328;24;20021;-75
2024/02/03 00:51:28;;;;;;;0.00;0.00;;;;;;;10.34;100.00;101701.44;5926544;24;20064;-74
2024/02/03 00:53:54;;;;;;;0.00;0.00;;;;;;;10.30;100.00;101687.34;5929044;24;20004;-76
2024/02/03 00:56:19;;;;;;;0.00;0.00;;;;;;;10.50;100.00;101721.81;5980111;23;20002;-75
2024/02/03 00:58:57;;;;;;;;;;;;;;;;;;;;;
2024/02/03 01:01:49;;;;;;;0.00;0.00;;;;;;;10.41;100.00;101701.31;6053574;23;20033;-76
2024/02/03 01:08:10;;;;;;;0.00;0.00;;;;;;;10.14;100.00;101657.94;5995336;23;20094;-78
2024/02/03 01:10:42;;;;;;;0.00;0.00;;;;;;;10.33;100.00;101693.44;6140946;23;20005;-76
2024/02/03 01:20:25;;;;;;;;;;;;;;;;;;;;;
2024/02/03 01:37:01;;;;;;;0.00;0.00;;;;;;;9.95;100.00;101643.50;6069154;23;20022;-78
2024/02/03 01:39:26;;;;;;;0.00;0.00;;;;;;;9.94;100.00;101653.59;6041186;23;20469;-77
2024/02/03 01:41:52;;;;;;;0.00;0.00;;;;;;;10.21;100.00;101699.69;6067999;23;20014;-77
2024/02/03 01:44:18;;;;;;;0.00;0.00;;;;;;;10.14;100.00;101679.81;6040120;23;20211;-77
2024/02/03 01:49:34;;;;;;;0.00;0.00;;;;;;;9.90;100.00;101636.00;6053158;23;20023;-74
2024/02/03 01:52:02;;;;;;;0.00;0.00;;;;;;;9.94;100.00;101637.22;6043024;23;20052;-75
2024/02/03 01:54:29;;;;;;;0.00;0.00;;;;;;;10.25;100.00;101681.75;6041016;23;20015;-75
2024/02/03 01:56:59;;;;;;;0.00;0.00;;;;;;;10.19;100.00;101674.50;6083227;23;20009;-74
2024/02/03 01:59:28;;;;;;;0.00;0.00;;;;;;;10.12;100.00;101662.81;6132035;23;19981;-75
2024/02/03 02:02:06;;;;;;;0.00;0.00;;;;;;;10.11;100.00;101663.88;6127865;23;20005;-75
2024/02/03 02:04:32;;;;;;;0.00;0.00;;;;;;;10.26;100.00;101688.88;6129314;23;19994;-74
2024/02/03 02:06:58;;;;;;;0.00;0.00;;;;;;;10.20;100.00;101678.88;6106952;23;20009;-74
2024/02/03 02:09:36;;;;;;;0.00;0.00;;;;;;;10.18;100.00;101674.69;6130498;23;20010;-75
2024/02/03 02:12:10;;;;;;;0.00;0.00;;;;;;;10.23;100.00;101681.13;6129750;23;20424;-75
2024/02/03 02:14:38;;;;;;;0.00;0.00;;;;;;;10.11;100.00;101661.97;6131985;23;20006;-74
2024/02/03 02:17:04;;;;;;;0.00;0.00;;;;;;;10.22;100.00;101676.75;6105890;23;20048;-75
2024/02/03 02:19:29;;;;;;;0.00;0.00;;;;;;;10.16;100.00;101674.94;6132243;23;20009;-74
2024/02/03 02:21:55;;;;;;;0.00;0.00;;;;;;;10.14;100.00;101674.34;6106675;23;20012;-73
2024/02/03 02:24:55;;;;;;;0.00;0.00;;;;;;;10.31;100.00;101697.22;6105573;23;20013;-79
2024/02/03 02:28:43;;;;;;;;;;;;;;;;;;;;;
2024/02/03 02:32:07;;;;;;;;;;;;;;;;;;;;;
2024/02/03 03:10:31;;;;;;;0.00;0.00;;;;;;;9.94;100.00;101609.91;5834910;24;20010;-79
2024/02/03 03:20:07;;;;;;;0.10;0.10;;;;;;;10.34;100.00;101675.97;5887142;24;20091;-78
2024/02/03 03:23:17;;;;;;;0.00;0.00;;;;;;;10.09;100.00;101633.19;5926063;24;20076;-79
2024/02/03 03:26:02;;;;;;;0.00;0.00;;;;;;;10.25;100.00;101654.41;5895898;24;19993;-80
2024/02/03 03:29:30;;;;;;;;;;;;;;;;;;;;;
2024/02/03 03:33:07;;;;;;;;;;;;;;;;;;;;;
2024/02/03 03:36:06;;;;;;;;;;;;;;;;;;;;;
2024/02/03 03:42:50;;;;;;;;;;;;;;;;;;;;;
2024/02/03 03:45:25;;;;;;;0.00;0.00;;;;;;;10.18;100.00;101618.16;6041484;23;20057;-78
2024/02/03 03:48:24;;;;;;;0.00;0.00;;;;;;;10.39;100.00;101648.78;6129795;23;20029;-77
2024/02/03 03:51:11;;;;;;;0.00;0.00;;;;;;;10.09;100.00;101594.94;6130122;23;20025;-77
2024/02/03 03:56:54;;;;;;;0.00;0.00;;;;;;;10.11;100.00;101603.75;6137411;23;20032;-77
2024/02/03 04:00:22;;;;;;;0.00;0.00;;;;;;;10.24;100.00;101619.94;6133997;23;20005;-79
2024/02/03 04:03:10;;;;;;;0.00;0.00;;;;;;;10.42;100.00;101634.63;6157104;23;20064;-78
2024/02/03 04:05:38;;;;;;;0.00;0.00;;;;;;;10.13;100.00;101579.75;6138508;23;20043;-77
2024/02/03 04:08:05;;;;;;;0.00;0.00;;;;;;;10.37;100.00;101623.56;6134363;23;20020;-77
2024/02/03 04:10:31;;;;;;;0.00;0.00;;;;;;;10.36;100.00;101627.38;6160044;23;20336;-77
2024/02/03 04:12:56;;;;;;;0.00;0.00;;;;;;;10.29;100.00;101622.81;6109601;23;20017;-77
2024/02/03 04:16:04;;;;;;;;;;;;;;;;;;;;;
2024/02/03 04:22:24;;;;;;;0.00;0.00;;;;;;;10.35;100.00;101625.69;6037742;23;20005;-78
2024/02/03 04:24:50;;;;;;;0.00;0.00;;;;;;;10.33;100.00;101625.06;6102641;23;20068;-79
2024/02/03 04:27:15;;;;;;;0.00;0.00;;;;;;;10.36;100.00;101627.38;6129905;23;20432;-78
2024/02/03 04:29:41;;;;;;;0.00;0.00;;;;;;;10.31;100.00;101615.19;6160517;23;20375;-80
2024/02/03 04:35:42;;;;;;;0.00;0.00;;;;;;;10.18;100.00;101601.75;6069874;23;20005;-80
2024/02/03 04:44:55;;;;;;;0.00;0.00;;;;;;;10.32;100.00;101618.75;6027117;23;20812;-78
2024/02/03 04:47:26;;;;;;;0.10;0.10;;;;;;;10.25;100.00;101605.22;6069684;23;20080;-79
2024/02/03 04:50:00;;;;;;;0.00;0.00;;;;;;;10.24;100.00;101581.66;6045920;23;20027;-77
2024/02/03 04:53:27;;;;;;;0.05;0.05;;;;;;;10.40;100.00;101612.16;6067257;23;20007;-79
2024/02/03 04:55:52;;;;;;;0.00;0.00;;;;;;;10.10;100.00;101577.47;6067687;23;20066;-78
2024/02/03 04:58:19;;;;;;;0.00;0.00;;;;;;;10.31;100.00;101614.38;6063072;23;20009;-77
2024/02/03 05:00:44;;;;;;;0.00;0.00;;;;;;;10.26;100.00;101611.50;6157979;23;20012;-77
2024/02/03 05:10:16;;;;;;;0.10;0.10;;;;;;;10.40;100.00;101629.41;6130324;23;20386;-78
2024/02/03 05:17:33;;;;;;;;;;;;;;;;;;;;;
2024/02/03 05:24:39;;;;;;;0.00;0.00;;;;;;;10.24;100.00;101614.47;5924167;24;20600;-78
2024/02/03 05:30:46;;;;;;;0.00;0.00;;;;;;;10.21;100.00;101609.47;5845657;24;20322;-78
2024/02/03 05:36:26;;;;;;;0.00;0.00;;;;;;;9.99;100.00;101559.16;5969206;24;20108;-77
2024/02/03 05:38:58;;;;;;;0.00;0.00;;;;;;;9.98;100.00;101560.25;5982505;24;20037;-80
2024/02/03 05:41:26;;;;;;;0.00;0.00;;;;;;;10.04;100.00;101575.69;5958402;24;20014;-80
2024/02/03 05:43:51;;;;;;;0.00;0.00;;;;;;;10.02;100.00;101572.38;5974348;23;20034;-80
2024/02/03 05:46:17;;;;;;;0.00;0.00;;;;;;;10.05;100.00;101566.44;6049780;23;20032;-80
2024/02/03 05:48:42;;;;;;;0.00;0.00;;;;;;;10.07;100.00;101564.28;6050100;23;20010;-80
2024/02/03 05:51:08;;;;;;;0.00;0.00;;;;;;;10.04;100.00;101564.75;6048274;23;20618;-79
2024/02/03 05:53:45;;;;;;;;;;;;;;;;;;;;;
2024/02/03 05:56:40;;;;;;;0.00;0.00;;;;;;;10.23;100.00;101606.50;6098278;23;20046;-80
2024/02/03 06:03:18;;;;;;;;;;;;;;;;;;;;;
2024/02/03 06:10:20;;;;;;;0.00;0.00;;;;;;;9.99;100.00;101567.34;5920310;24;20029;-80
2024/02/03 06:20:29;;;;;;;;;;;;;;;;;;;;;
2024/02/03 06:30:18;;;;;;;;;;;;;;;;;;;;;
2024/02/03 06:36:11;;;;;;;0.00;0.00;;;;;;;10.44;100.00;101621.53;5928461;24;20133;-79
2024/02/03 06:38:44;;;;;;;0.00;0.00;;;;;;;10.23;100.00;101585.47;5926847;24;20008;-77
2024/02/03 06:41:15;;;;;;;0.00;0.00;;;;;;;10.19;100.00;101588.91;5959433;24;20000;-78
2024/02/03 06:43:43;;;;;;;0.00;0.00;;;;;;;10.03;100.00;101590.41;6112041;23;20010;-78
2024/02/03 06:46:08;;;;;;;0.00;0.00;;;;;;;9.95;100.00;101595.13;6077719;23;20009;-79
2024/02/03 06:48:34;;;;;;;0.00;0.00;;;;;;;9.73;100.00;101585.81;6104259;23;20760;-77
2024/02/03 06:50:59;;;;;;;0.00;0.00;;;;;;;9.74;100.00;101603.88;6083128;23;20009;-79
2024/02/03 06:53:25;;;;;;;0.00;0.00;;;;;;;9.81;100.00;101581.91;6108494;23;20105;-79
2024/02/03 06:55:51;;;;;;;0.00;0.00;;;;;;;9.85;100.00;101578.47;6105338;23;20013;-80
2024/02/03 06:58:16;;;;;;;0.00;0.00;;;;;;;9.83;100.00;101596.16;6132785;23;20033;-79
2024/02/03 07:00:42;;;;;;;0.00;0.00;;;;;;;9.78;100.00;101610.53;6158469;23;20032;-78
2024/02/03 07:03:07;;;;;;;0.00;0.00;;;;;;;9.76;100.00;101591.63;6130364;23;20016;-78
2024/02/03 07:05:32;;;;;;;0.00;0.00;;;;;;;9.72;100.00;101606.81;6082960;23;20096;-79
2024/02/03 07:07:58;;;;;;;0.00;0.00;;;;;;;9.65;100.00;101602.53;6129692;23;20017;-77
2024/02/03 07:10:27;;;;;;;0.00;0.00;;;;;;;9.64;100.00;101604.44;6084384;23;20088;-78
2024/02/03 07:12:52;;;;;;;0.00;0.00;;;;;;;9.65;100.00;101621.63;6108215;23;20325;-77
2024/02/03 07:15:18;;;;;;;0.00;0.00;;;;;;;9.57;100.00;101617.34;6106339;23;20088;-77
2024/02/03 07:17:44;;;;;;;0.00;0.00;;;;;;;9.59;100.00;101618.78;6129520;23;20417;-79
2024/02/03 07:20:10;;;;;;;0.00;0.00;;;;;;;9.66;100.00;101612.38;6105436;23;20010;-77
2024/02/03 07:22:38;;;;;;;0.00;0.00;;;;;;;9.67;100.00;101606.69;6105473;23;20020;-77
2024/02/03 07:25:04;;;;;;;0.00;0.00;;;;;;;9.91;100.00;101629.47;6081082;23;20071;-78
2024/02/03 07:27:30;;;;;;;0.00;0.00;;;;;;;10.00;100.00;101623.66;6105429;23;20014;-77
2024/02/03 07:29:55;;;;;;;0.00;0.00;;;;;;;9.91;100.00;101604.88;6084248;23;20033;-79
2024/02/03 07:32:21;;;;;;;0.00;0.00;;;;;;;10.00;100.00;101610.00;6106727;23;20014;-79
2024/02/03 07:34:46;;;;;;;0.00;0.00;;;;;;;10.05;100.00;101621.09;6110268;23;20016;-77
2024/02/03 07:37:17;;;;;;;0.00;0.00;;;;;;;9.99;100.00;101616.53;6106803;23;20392;-77
2024/02/03 07:39:46;;;;;;;0.00;0.00;;;;;;;9.91;100.00;101614.97;6108491;23;20001;-78
2024/02/03 07:42:12;;;;;;;0.00;0.00;;;;;;;10.06;100.00;101630.94;6131945;23;20002;-77
2024/02/03 07:44:37;;;;;;;0.00;0.00;;;;;;;10.08;100.00;101621.44;6134253;23;19992;-77
2024/02/03 07:47:03;;;;;;;0.00;0.00;;;;;;;10.06;100.00;101595.41;6109857;23;20010;-79
2024/02/03 07:49:28;;;;;;;0.00;0.00;;;;;;;10.21;100.00;101619.59;6134777;23;20014;-78
2024/02/03 07:51:54;;;;;;;0.00;0.00;;;;;;;10.27;100.00;101614.00;6088394;23;20005;-76
2024/02/03 07:54:19;;;;;;;0.00;0.00;;;;;;;10.35;100.00;101631.16;6107859;23;20006;-76
2024/02/03 07:56:47;;;;;;;0.00;0.00;;;;;;;10.41;100.00;101625.59;6160309;23;20005;-76
2024/02/03 07:59:14;;;;;;;0.00;0.00;;;;;;;10.36;100.00;101610.97;6083537;23;20059;-78
2024/02/03 08:01:50;;;;;;;;;;;;;;;;;;;;;
2024/02/03 08:07:51;;;;;;;0.00;0.00;;;;;;;10.05;100.00;101588.28;6027271;23;20019;-80
2024/02/03 08:10:28;;;;;;;0.00;0.00;;;;;;;10.28;100.00;101634.00;6133621;23;20069;-77
2024/02/03 08:12:54;;;;;;;0.00;0.00;;;;;;;10.14;100.00;101600.53;6128795;23;20320;-81
2024/02/03 08:15:25;;;;;;;0.00;0.00;;;;;;;10.16;100.00;101612.06;6133217;23;20017;-78
2024/02/03 08:18:23;;;;;;;0.00;0.00;;;;;;;10.49;100.00;101657.22;6134873;23;20021;-80
2024/02/03 08:21:39;;;;;;;;;;;;;;;;;;;;;
2024/02/03 08:24:19;;;;;;;0.00;0.00;;;;;;;10.49;100.00;101632.63;6164360;23;20025;-78
2024/02/03 08:27:44;;;;;;;;;;;;;;;;;;;;;
2024/02/03 08:30:19;;;;;;;0.00;0.00;;;;;;;10.42;100.00;101629.16;6060195;23;20033;-79
2024/02/03 08:32:52;;;;;;;0.00;0.00;;;;;;;10.43;100.00;101622.63;6134661;23;20005;-74
2024/02/03 08:35:18;;;;;;;0.00;0.00;;;;;;;10.28;100.00;101610.19;6110068;23;20036;-76
2024/02/03 08:38:09;;;;;;;0.00;0.00;;;;;;;10.51;100.00;101635.94;6137041;23;20420;-81
2024/02/03 08:40:50;;;;;;;0.00;0.00;;;;;;;10.56;100.00;101647.00;6161910;23;19994;-77
2024/02/03 08:43:16;;;;;;;0.00;0.00;;;;;;;10.59;100.00;101643.81;6108697;23;20010;-78
2024/02/03 08:45:56;;;;;;;0.00;0.00;;;;;;;10.40;100.00;101607.50;6134422;23;20056;-82
2024/02/03 08:48:36;;;;;;;0.00;0.00;;;;;;;10.60;100.00;101655.56;6133713;23;20008;-79
2024/02/03 08:51:27;;;;;;;0.00;0.00;;;;;;;10.55;100.00;101645.34;6104379;23;20028;-83
2024/02/03 08:54:12;;;;;;;0.00;0.00;;;;;;;10.37;100.00;101629.88;6092265;23;20014;-83
2024/02/03 08:59:33;;;;;;;0.00;0.00;;;;;;;10.18;100.00;101600.91;6069842;23;20025;-82
2024/02/03 09:02:38;;;;;;;;;;;;;;;;;;;;;
2024/02/03 09:05:04;;;;;;;0.00;0.00;;;;;;;10.53;100.00;101624.75;6067564;23;20037;-82
2024/02/03 09:07:34;;;;;;;0.00;0.00;;;;;;;10.55;100.00;101636.31;6070971;23;20007;-81
2024/02/03 09:10:36;;;;;;;0.00;0.00;;;;;;;10.78;100.00;101663.69;6067230;23;20010;-83
2024/02/03 09:13:20;;;;;;;0.00;0.00;;;;;;;10.75;100.00;101641.44;6090709;23;20038;-83
2024/02/03 09:15:48;;;;;;;0.00;0.00;;;;;;;10.82;100.00;101640.25;6087766;23;20016;-84
2024/02/03 09:18:17;;;;;;;0.00;0.00;;;;;;;11.08;100.00;101653.69;6133001;23;20451;-82
2024/02/03 09:20:50;;;;;;;0.00;0.00;;;;;;;10.85;100.00;101603.38;6134034;23;20002;-83
2024/02/03 09:23:15;;;;;;;0.00;0.00;;;;;;;10.97;100.00;101636.19;6138119;23;20006;-81
2024/02/03 09:25:52;;;;;;;0.00;0.00;;;;;;;10.76;100.00;101622.06;6131231;23;20443;-82
2024/02/03 09:28:20;;;;;;;0.00;0.00;;;;;;;10.70;100.00;101619.44;6108692;23;20013;-83
2024/02/03 09:31:05;;;;;;;0.00;0.00;;;;;;;10.83;100.00;101639.19;6133813;23;20013;-82
2024/02/03 09:33:39;;;;;;;;;;;;;;;11.04;100.00;101666.16;6133352;23;20446;-83
2024/02/03 09:36:05;;;;;;;0.00;0.00;;;;;;;10.75;100.00;101641.44;6131940;23;19912;-81
2024/02/03 09:38:31;;;;;;;0.00;0.00;;;;;;;10.78;100.00;101643.72;6134655;23;20001;-81
2024/02/03 09:40:57;;;;;;;0.00;0.00;;;;;;;10.95;100.00;101674.75;6132713;23;20056;-82
2024/02/03 09:43:25;;;;;;;0.00;0.00;;;;;;;10.70;100.00;101638.56;6159486;23;20056;-82
2024/02/03 09:46:48;;;;;;;;;;;;;;;;;;;;;
2024/02/03 09:49:34;;;;;;;;;;;;;;;;;;;;;
2024/02/03 09:52:14;;;;;;;;;;;;;;;;;;;;;
2024/02/03 09:57:35;;;;;;;0.00;0.00;;;;;;;10.85;100.00;101630.75;6141336;23;20080;-81
2024/02/03 10:00:01;;;;;;;0.08;0.08;;;;;;;11.11;100.00;101661.41;6132337;23;20021;-83
2024/02/03 10:02:29;;;;;;;0.00;0.00;;;;;;;11.26;100.00;101675.44;6131663;23;20001;-81
2024/02/03 10:05:00;;;;;;;0.00;0.00;;;;;;;11.08;100.00;101640.00;6129273;23;20461;-82
2024/02/03 10:07:26;;;;;;;0.00;0.00;;;;;;;11.09;100.00;101636.19;6132906;23;20009;-82
2024/02/03 10:10:18;;;;;;;0.00;0.00;;;;;;;11.28;100.00;101656.88;6106372;23;20056;-82
2024/02/03 10:12:48;;;;;;;0.00;0.00;;;;;;;11.43;100.00;101685.66;6108804;23;20039;-82
2024/02/03 10:15:17;;;;;;;0.00;0.00;;;;;;;10.98;100.00;101630.50;6089032;23;20009;-83
2024/02/03 10:17:48;;;;;;;0.00;0.00;;;;;;;10.98;100.00;101640.59;6136913;23;20012;-80
2024/02/03 10:20:14;;;;;;;0.00;0.00;;;;;;;11.13;100.00;101672.97;6158586;23;20012;-82
2024/02/03 10:22:40;;;;;;;0.00;0.00;;;;;;;11.21;100.00;101691.75;6135590;23;20005;-81
2024/02/03 10:25:09;;;;;;;0.00;0.00;;;;;;;10.97;100.00;101667.13;6132603;23;20016;-82
2024/02/03 10:27:45;;;;;;;;;;;;;;;;;;;;;
2024/02/03 10:30:26;;;;;;;0.00;0.00;;;;;;;11.13;100.00;101681.19;6157979;23;20073;-83
2024/02/03 10:32:52;;;;;;;0.00;0.00;;;;;;;11.06;100.00;101669.53;6111769;23;20032;-82
2024/02/03 10:35:21;;;;;;;0.00;0.00;;;;;;;11.06;100.00;101639.41;6135345;23;20096;-81
2024/02/03 10:38:22;;;;;;;0.00;0.00;;;;;;;11.20;100.00;101665.47;6169431;23;20020;-82
2024/02/03 10:40:51;;;;;;;0.00;0.00;;;;;;;11.02;100.00;101640.97;6141844;23;20005;-83
2024/02/03 10:43:55;;;;;;;0.00;0.00;;;;;;;11.21;100.00;101671.75;6137636;23;20358;-81
2024/02/03 10:46:27;;;;;;;0.00;0.00;;;;;;;11.24;100.00;101665.81;6120070;23;20044;-81
2024/02/03 10:48:55;;;;;;;0.00;0.00;;;;;;;11.47;100.00;101686.84;6112279;23;20001;-79
2024/02/03 10:51:55;;;;;;;;;;;;;;;;;;;;;
2024/02/03 10:54:48;;;;;;;0.00;0.00;;;;;;;11.44;100.00;101659.94;6154645;23;20024;-78
2024/02/03 10:57:24;;;;;;;;;;;;;;;;;;;;;
2024/02/03 11:00:00;;;;;;;0.00;0.00;;;;;;;12.16;100.00;101661.38;6157096;23;20460;-80
2024/02/03 11:02:34;;;;;;;0.00;0.00;;;;;;;12.39;100.00;101655.75;6131553;23;20005;-79
2024/02/03 11:05:05;;;;;;;0.00;0.00;;;;;;;12.70;100.00;101693.84;6130398;23;20001;-79
2024/02/03 11:07:41;;;;;;;;;;;;;;;;;;;;;
2024/02/03 11:10:07;;;;;;;0.00;0.00;;;;;;;12.70;100.00;101638.94;6132943;23;20101;-78
2024/02/03 11:12:36;;;;;;;0.00;0.00;;;;;;;13.22;100.00;101689.97;6130817;23;20001;-79
2024/02/03 11:15:02;;;;;;;0.00;0.00;;;;;;;13.39;100.00;101678.97;6126889;23;20009;-78
2024/02/03 11:17:32;;;;;;;0.00;0.00;;;;;;;13.31;99.60;101666.47;6107614;23;19990;-80
2024/02/03 11:20:00;;;;;;;0.00;0.00;;;;;;;13.27;98.35;101668.06;6128029;23;20332;-78
2024/02/03 11:22:35;;;;;;;0.00;0.00;;;;;;;13.40;97.73;101675.97;6106981;23;20007;-79
2024/02/03 11:25:18;;;;;;;0.00;0.00;;;;;;;13.60;96.64;101674.56;6105121;23;20013;-79
2024/02/03 11:27:48;;;;;;;0.00;0.00;;;;;;;13.47;95.76;101641.97;6109002;23;19994;-81
2024/02/03 11:30:23;;;;;;;0.00;0.00;;;;;;;13.40;93.91;101621.03;6126738;23;20009;-81
2024/02/03 11:32:48;;;;;;;;;;;;;;;13.87;94.58;101676.53;6133621;23;20008;-81
2024/02/03 11:35:17;;;;;;;0.00;0.00;;;;;;;13.95;93.04;101676.06;6129792;23;19935;-81
2024/02/03 11:38:12;;;;;;;0.00;0.00;;;;;;;13.50;93.14;101630.47;6158738;23;20350;-83
2024/02/03 11:41:03;;;;;;;;;;;;;;;13.80;93.73;101679.50;6111686;23;20016;-81
2024/02/03 11:43:29;;;;;;;0.00;0.00;;;;;;;13.74;93.67;101650.25;6120963;23;19905;-80
2024/02/03 11:46:03;;;;;;;0.00;0.00;;;;;;;13.78;92.25;101646.75;6127819;23;20432;-81
2024/02/03 11:48:31;;;;;;;0.00;0.00;;;;;;;14.05;92.08;101673.44;6131450;23;20006;-80
2024/02/03 11:53:45;;;;;;;0.00;0.00;;;;;;;14.50;89.33;101652.13;6157029;23;20076;-80
2024/02/03 11:56:13;;;;;;;0.00;0.00;;;;;;;14.75;89.38;101684.56;6103019;23;20425;-81
2024/02/03 11:58:44;;;;;;;0.00;0.00;;;;;;;14.34;87.13;101629.16;6133486;23;20425;-81
2024/02/03 12:01:30;;;;;;;0.00;0.00;;;;;;;14.28;88.24;101631.03;6129788;23;19994;-81
2024/02/03 12:03:55;;;;;;;0.00;0.00;;;;;;;14.14;88.17;101630.59;6134398;23;20428;-81
2024/02/03 12:06:21;;;;;;;0.00;0.00;;;;;;;14.26;88.27;101681.88;6154714;23;20028;-79
2024/02/03 12:08:57;;;;;;;0.00;0.00;;;;;;;13.96;89.33;101633.75;6160498;23;20009;-80
2024/02/03 12:11:23;;;;;;;0.00;0.00;;;;;;;13.97;89.42;101621.63;6131050;23;20565;-79
2024/02/03 12:14:15;;;;;;;0.00;0.00;;;;;;;14.03;90.21;101617.88;6134155;23;20032;-80
2024/02/03 12:16:50;;;;;;;0.03;0.03;;;;;;;14.60;88.32;101665.97;6133696;23;20012;-81
2024/02/03 12:19:20;;;;;;;0.00;0.00;;;;;;;14.74;87.31;101638.84;6138717;23;20076;-81
2024/02/03 12:22:13;;;;;;;0.00;0.00;;;;;;;14.66;85.76;101631.09;6133110;23;20054;-82
2024/02/03 12:24:38;;;;;;;0.00;0.00;;;;;;;14.57;86.41;101618.84;6138642;23;19990;-82
2024/02/03 12:27:23;;;;;;;0.00;0.00;;;;;;;14.95;84.98;101650.84;6110524;23;20062;-81
2024/02/03 12:29:49;;;;;;;0.00;0.00;;;;;;;14.96;84.42;101624.13;6111576;23;20033;-79
2024/02/03 12:32:24;;;;;;;0.10;0.10;;;;;;;14.82;84.74;101608.06;6105988;23;20443;-78
2024/02/03 12:34:59;;;;;;;0.00;0.00;;;;;;;14.67;84.75;101616.22;6134130;23;19990;-78
2024/02/03 12:37:48;;;;;;;0.00;0.00;;;;;;;14.33;86.73;101632.97;6128053;23;20009;-77
2024/02/03 12:40:10;;;;;;;0.00;0.00;;;;;;;13.78;89.41;101627.53;6159702;23;19998;-81
2024/02/03 12:50:11;;;;;;;0.00;0.00;;;;;;;12.73;98.19;101598.13;5950181;23;20027;-78
2024/02/03 13:21:53;;;;;;;;;;;;;;;;;;;;;
2024/02/03 13:32:20;;;;;;;;;;;;;;;;;;;;;
2024/02/03 13:41:39;;;;;;;0.00;0.00;;;;;;;12.98;97.01;101558.41;5767508;24;20054;-79
2024/02/03 13:51:34;;;;;;;;;;;;;;;;;;;;;
2024/02/03 13:54:29;;;;;;;0.00;0.00;;;;;;;14.06;92.85;101600.84;6070816;23;20087;-80
2024/02/03 13:57:56;;;;;;;0.00;0.00;;;;;;;14.23;91.90;101597.13;5975073;24;20008;-74
2024/02/03 14:00:31;;;;;;;0.00;0.00;;;;;;;13.98;91.63;101593.06;6045448;23;20006;-72
2024/02/03 14:02:59;;;;;;;0.00;0.00;;;;;;;13.62;93.46;101556.94;6125123;23;20088;-74
2024/02/03 14:05:25;;;;;;;0.10;0.10;;;;;;;13.61;93.87;101582.78;6126636;23;20023;-74
2024/02/03 14:08:16;;;;;;;;;;;;;;;;;;;;;
2024/02/03 14:11:21;;;;;;;;;;;;;;;;;;;;;
2024/02/03 14:14:38;;;;;;;;;;;;;;;;;;;;;
2024/02/03 14:17:22;;;;;;;0.00;0.00;;;;;;;14.19;91.97;101599.56;6152924;23;20088;-73
2024/02/03 14:19:47;;;;;;;0.00;0.00;;;;;;;14.09;91.92;101600.31;6130657;23;20005;-72
2024/02/03 14:22:18;;;;;;;0.00;0.00;;;;;;;13.70;92.81;101569.41;6129007;23;20097;-75
2024/02/03 14:25:20;;;;;;;0.00;0.00;;;;;;;13.39;93.94;101558.06;6131636;23;20032;-73
2024/02/03 14:31:42;;;;;;;0.00;0.00;;;;;;;13.13;95.56;101532.19;6003391;23;20046;-74
2024/02/03 14:34:10;;;;;;;0.00;0.00;;;;;;;12.98;94.92;101541.06;5992736;23;20092;-73
2024/02/03 14:36:36;;;;;;;0.00;0.00;;;;;;;13.23;96.61;101579.84;6103173;23;20048;-73
2024/02/03 14:43:04;;;;;;;;;;;;;;;;;;;;;
2024/02/03 14:46:09;;;;;;;0.00;0.00;;;;;;;12.86;97.27;101532.97;6142635;23;20012;-75
2024/02/03 14:48:35;;;;;;;0.00;0.00;;;;;;;13.00;97.71;101549.91;6067734;23;20021;-74
2024/02/03 14:51:00;;;;;;;0.00;0.00;;;;;;;13.19;98.13;101569.63;6100358;23;20029;-73
2024/02/03 14:58:08;;;;;;;0.00;0.00;;;;;;;12.95;99.49;101541.59;5965967;23;20082;-75
2024/02/03 15:00:34;;;;;;;0.00;0.00;;;;;;;13.16;98.71;101564.66;6036366;23;20007;-74
2024/02/03 15:02:59;;;;;;;0.00;0.00;;;;;;;12.97;98.81;101556.72;6008718;23;20019;-74
2024/02/03 15:05:57;;;;;;;0.00;0.00;;;;;;;13.02;99.50;101575.19;6011896;23;20465;-72
2024/02/03 15:09:14;;;;;;;;;;;;;;;;;;;;;
2024/02/03 15:12:33;;;;;;;0.00;0.00;;;;;;;12.56;100.00;101556.16;6004946;23;20071;-73
2024/02/03 15:32:24;;;;;;;;;;;;;;;;;;;;;
2024/02/03 15:38:46;;;;;;;;;;;;;;;;;;;;;
2024/02/03 15:41:21;;;;;;;0.00;0.00;;;;;;;11.82;100.00;101543.41;6028546;23;20085;-74
2024/02/03 15:43:47;;;;;;;0.00;0.00;;;;;;;11.96;100.00;101572.19;6130432;23;20025;-74
2024/02/03 15:46:13;;;;;;;0.00;0.00;;;;;;;11.74;100.00;101530.94;6106115;23;20332;-74
2024/02/03 15:49:53;;;;;;;0.00;0.00;;;;;;;12.09;100.00;101570.22;6132126;23;20088;-74
2024/02/03 15:53:02;;;;;;;;;;;;;;;;;;;;;
2024/02/03 15:55:40;;;;;;;0.00;0.00;;;;;;;12.22;100.00;101570.72;6158560;23;20040;-74
2024/02/03 15:58:09;;;;;;;0.00;0.00;;;;;;;12.26;100.00;101579.28;6104293;23;20006;-74
2024/02/03 16:00:35;;;;;;;0.00;0.00;;;;;;;12.23;100.00;101574.28;6129468;23;20324;-74
2024/02/03 16:03:01;;;;;;;0.00;0.00;;;;;;;12.08;100.00;101541.16;6104173;23;20088;-74
2024/02/03 16:05:57;;;;;;;0.00;0.00;;;;;;;12.21;100.00;101565.50;6107144;23;20077;-73
2024/02/03 16:12:26;;;;;;;;;;;;;;;;;;;;;
2024/02/03 16:18:28;;;;;;;0.00;0.00;;;;;;;11.80;100.00;101537.34;6136936;23;20009;-74
2024/02/03 16:24:30;;;;;;;0.00;0.00;;;;;;;11.94;100.00;101555.16;5982041;24;20004;-74
2024/02/03 16:27:03;;;;;;;0.00;0.00;;;;;;;11.92;100.00;101546.31;5949716;24;20031;-73
2024/02/03 16:30:14;;;;;;;0.00;0.00;;;;;;;12.07;100.00;101569.63;6026033;23;20014;-73
2024/02/03 16:33:08;;;;;;;0.00;0.00;;;;;;;12.09;100.00;101564.72;6072542;23;20073;-73
2024/02/03 16:36:31;;;;;;;;;;;;;;;;;;;;;
2024/02/03 16:45:24;;;;;;;0.00;0.00;;;;;;;11.88;100.00;101523.22;6008366;23;20048;-75
2024/02/03 16:47:52;;;;;;;0.00;0.00;;;;;;;12.01;100.00;101547.59;6006919;23;20042;-75
2024/02/03 16:50:19;;;;;;;0.00;0.00;;;;;;;11.77;100.00;101510.41;6020773;23;20009;-74
2024/02/03 16:52:48;;;;;;;0.00;0.00;;;;;;;11.68;100.00;101529.19;6085761;23;20531;-75
2024/02/03 16:55:29;;;;;;;;;;;;;;;;;;;;;
2024/02/03 16:58:15;;;;;;;0.00;0.00;;;;;;;11.46;100.00;101521.69;6089858;23;20070;-74
2024/02/03 17:04:23;;;;;;;0.10;0.10;;;;;;;11.29;100.00;101510.66;5961677;23;20965;-78
2024/02/03 17:07:09;;;;;;;0.00;0.00;;;;;;;11.53;100.00;101546.16;6025811;23;20003;-77
2024/02/03 17:09:35;;;;;;;0.00;0.00;;;;;;;11.18;100.00;101490.50;6065505;23;20010;-78
2024/02/03 17:12:03;;;;;;;0.00;0.00;;;;;;;11.25;100.00;101525.91;6067504;23;20446;-79
2024/02/03 17:14:29;;;;;;;0.10;0.10;;;;;;;11.18;100.00;101522.50;6069557;23;20007;-80
2024/02/03 17:16:54;;;;;;;0.00;0.00;;;;;;;11.22;100.00;101526.41;6017708;23;20021;-80
2024/02/03 17:19:26;;;;;;;0.00;0.00;;;;;;;11.27;100.00;101534.75;6044496;23;20105;-79
2024/02/03 17:24:59;;;;;;;;;;;;;;;;;;;;;
2024/02/03 17:27:34;;;;;;;0.00;0.00;;;;;;;11.21;100.00;101508.31;6155691;23;20040;-79
2024/02/03 17:33:33;;;;;;;0.00;0.00;;;;;;;11.26;100.00;101544.03;6158104;23;20012;-79
2024/02/03 17:35:59;;;;;;;0.00;0.00;;;;;;;11.12;100.00;101520.72;6134064;23;20044;-81
2024/02/03 17:38:41;;;;;;;;;;;;;;;;;;;;;
2024/02/03 17:41:42;;;;;;;0.10;0.10;;;;;;;11.18;100.00;101552.59;6161268;23;20033;-80
2024/02/03 17:44:37;;;;;;;0.00;0.00;;;;;;;11.25;100.00;101571.66;6132130;23;20005;-80
2024/02/03 17:47:31;;;;;;;0.00;0.00;;;;;;;11.05;100.00;101539.19;6132650;23;20005;-79
2024/02/03 17:50:00;;;;;;;0.00;0.00;;;;;;;11.10;100.00;101550.25;6130602;23;20045;-80
2024/02/03 17:52:46;;;;;;;0.00;0.00;;;;;;;11.28;100.00;101574.72;6131417;23;20021;-80
2024/02/03 17:55:32;;;;;;;0.00;0.00;;;;;;;11.16;100.00;101554.75;6129857;23;20012;-81
2024/02/03 17:58:01;;;;;;;0.00;0.00;;;;;;;11.26;100.00;101571.41;6157025;23;20009;-80